createdAt,value
2018-05-03T00:00:02.297Z,70.10
2018-05-03T00:02:31.750Z,70.60
2018-05-03T00:05:00.993Z,70.50
2018-05-03T00:07:30.229Z,71.70
2018-05-03T00:10:00.312Z,72.00
2018-05-03T00:12:29.715Z,71.90
2018-05-03T00:14:58.916Z,72.40
2018-05-03T00:17:28.115Z,72.40
2018-05-03T00:19:57.304Z,72.50
2018-05-03T00:22:29.460Z,72.50
2018-05-03T00:24:58.672Z,72.90
2018-05-03T00:27:27.979Z,73.00
2018-05-03T00:29:57.171Z,73.30
2018-05-03T00:32:26.606Z,73.50
2018-05-03T00:34:55.815Z,73.40
2018-05-03T00:37:25.771Z,73.50
2018-05-03T00:39:54.936Z,73.50
2018-05-03T00:42:25.028Z,73.00
2018-05-03T00:44:54.265Z,73.00
2018-05-03T00:47:24.218Z,72.70
2018-05-03T00:49:53.520Z,72.70
2018-05-03T00:52:22.791Z,72.80
2018-05-03T00:54:52.731Z,73.00
2018-05-03T00:57:21.925Z,73.00
2018-05-03T00:59:50.938Z,73.10
2018-05-03T01:02:20.187Z,73.30
2018-05-03T01:04:49.506Z,73.30
2018-05-03T01:07:18.832Z,73.50
2018-05-03T01:09:48.090Z,73.50
2018-05-03T01:12:17.329Z,73.70
2018-05-03T01:14:47.322Z,74.20
2018-05-03T01:17:16.576Z,74.20
2018-05-03T01:19:45.875Z,74.30
2018-05-03T01:22:15.147Z,74.30
2018-05-03T01:24:44.382Z,75.00
2018-05-03T01:27:13.718Z,74.90
2018-05-03T01:29:43.015Z,74.60
2018-05-03T01:32:13.072Z,74.90
2018-05-03T01:34:42.316Z,74.80
2018-05-03T01:37:11.556Z,74.80
2018-05-03T01:39:41.589Z,75.50
2018-05-03T01:42:10.882Z,75.50
2018-05-03T01:44:40.152Z,75.80
2018-05-03T01:47:09.421Z,76.00
2018-05-03T01:49:39.537Z,76.10
2018-05-03T01:52:09.541Z,76.10
2018-05-03T01:54:38.865Z,76.00
2018-05-03T01:57:08.148Z,76.00
2018-05-03T01:59:38.596Z,75.80
2018-05-03T02:02:07.784Z,75.80
2018-05-03T02:04:37.073Z,75.80
2018-05-03T02:07:06.321Z,75.90
2018-05-03T02:09:35.585Z,76.00
2018-05-03T02:12:05.614Z,76.40
2018-05-03T02:14:34.902Z,76.30
2018-05-03T02:17:04.915Z,77.00
2018-05-03T02:19:36.023Z,78.00
2018-05-03T02:22:05.371Z,78.00
2018-05-03T02:24:34.646Z,78.60
2018-05-03T02:27:03.961Z,79.70
2018-05-03T02:29:33.335Z,79.60
2018-05-03T02:32:03.432Z,80.00
2018-05-03T02:34:32.851Z,80.00
2018-05-03T02:37:02.194Z,80.10
2018-05-03T02:39:31.534Z,79.80
2018-05-03T02:42:01.871Z,79.40
2018-05-03T02:44:31.302Z,78.90
2018-05-03T02:47:01.628Z,78.60
2018-05-03T02:49:30.997Z,78.60
2018-05-03T02:52:00.409Z,78.10
2018-05-03T02:54:29.797Z,77.80
2018-05-03T02:57:11.736Z,76.30
2018-05-03T02:59:53.619Z,75.40
2018-05-03T03:02:29.218Z,75.30
2018-05-03T03:05:16.210Z,75.30
2018-05-03T03:11:36.051Z,75.60
2018-05-03T03:14:27.625Z,75.60
2018-05-03T03:17:15.021Z,76.00
2018-05-03T03:19:53.540Z,76.30
2018-05-03T03:22:40.435Z,76.60
2018-05-03T03:28:57.663Z,77.00
2018-05-03T03:31:44.612Z,77.60
2018-05-03T03:34:28.476Z,78.30
2018-05-03T03:37:15.469Z,78.60
2018-05-03T03:40:02.329Z,79.40
2018-05-03T03:45:44.177Z,80.00
2018-05-03T03:48:14.140Z,80.70
2018-05-03T03:50:43.439Z,80.70
2018-05-03T03:53:12.716Z,81.00
2018-05-03T03:55:42.050Z,81.20
2018-05-03T03:58:11.425Z,81.20
2018-05-03T04:00:40.757Z,81.10
2018-05-03T04:03:10.001Z,81.30
2018-05-03T04:05:39.256Z,81.20
2018-05-03T04:08:09.252Z,81.00
2018-05-03T04:10:38.464Z,81.00
2018-05-03T04:13:07.677Z,81.10
2018-05-03T04:15:36.905Z,81.40
2018-05-03T04:18:18.627Z,81.90
2018-05-03T04:21:09.621Z,81.80
2018-05-03T04:23:50.766Z,82.40
2018-05-03T04:26:20.085Z,82.50
2018-05-03T04:28:49.373Z,82.50
2018-05-03T04:31:18.699Z,82.60
2018-05-03T04:33:47.962Z,82.60
2018-05-03T04:36:18.024Z,82.20
2018-05-03T04:38:47.316Z,82.30
2018-05-03T04:41:16.542Z,82.00
2018-05-03T04:43:45.840Z,81.60
2018-05-03T04:46:15.936Z,80.70
2018-05-03T04:48:45.228Z,80.70
2018-05-03T04:51:14.501Z,80.50
2018-05-03T04:53:44.473Z,79.80
2018-05-03T04:56:13.852Z,79.70
2018-05-03T04:58:43.073Z,79.10
2018-05-03T05:01:12.300Z,79.00
2018-05-03T05:03:41.633Z,78.50
2018-05-03T05:06:10.945Z,79.00
2018-05-03T05:08:40.274Z,77.50
2018-05-03T05:11:10.274Z,75.30
2018-05-03T05:13:39.542Z,75.90
2018-05-03T05:16:08.805Z,74.40
2018-05-03T05:18:38.049Z,73.80
2018-05-03T05:21:07.495Z,72.60
2018-05-03T05:23:36.802Z,71.90
2018-05-03T05:26:06.055Z,71.60
2018-05-03T05:28:36.465Z,71.10
2018-05-03T05:31:06.001Z,71.10
2018-05-03T05:33:36.072Z,70.40
2018-05-03T05:36:05.390Z,70.30
2018-05-03T05:38:35.239Z,69.90
2018-05-03T05:41:05.521Z,68.50
2018-05-03T05:43:34.828Z,68.50
2018-05-03T05:46:04.207Z,67.60
2018-05-03T05:48:33.593Z,67.10
2018-05-03T05:51:02.940Z,67.00
2018-05-03T05:53:33.402Z,66.20
2018-05-03T05:56:02.718Z,66.20
2018-05-03T05:58:33.322Z,65.30
2018-05-03T06:01:02.440Z,64.70
2018-05-03T06:03:31.393Z,63.80
2018-05-03T06:06:00.371Z,63.30
2018-05-03T06:08:30.200Z,61.10
2018-05-03T06:10:59.100Z,61.10
2018-05-03T06:13:28.095Z,59.90
2018-05-03T06:15:57.075Z,60.30
2018-05-03T06:18:26.044Z,59.30
2018-05-03T06:20:55.041Z,57.90
2018-05-03T06:23:24.782Z,58.90
2018-05-03T06:25:53.760Z,58.90
2018-05-03T06:28:23.484Z,59.40
2018-05-03T06:30:52.475Z,59.30
2018-05-03T06:33:21.420Z,58.80
2018-05-03T06:35:50.404Z,59.70
2018-05-03T06:38:19.376Z,60.20
2018-05-03T06:40:48.700Z,60.90
2018-05-03T06:43:17.938Z,60.60
2018-05-03T06:45:47.244Z,60.10
2018-05-03T06:48:16.503Z,60.30
2018-05-03T06:50:45.715Z,60.50
2018-05-03T06:53:15.039Z,61.40
2018-05-03T06:55:44.223Z,61.60
2018-05-03T06:58:13.546Z,61.10
2018-05-03T07:00:42.913Z,60.80
2018-05-03T07:03:12.292Z,60.80
2018-05-03T07:05:41.481Z,60.60
2018-05-03T07:08:11.583Z,61.30
2018-05-03T07:10:40.796Z,61.20
2018-05-03T07:13:10.804Z,61.00
2018-05-03T07:15:40.039Z,60.80
2018-05-03T07:18:09.959Z,60.50
2018-05-03T07:20:39.145Z,60.40
2018-05-03T07:23:08.366Z,60.20
2018-05-03T07:25:37.587Z,60.30
2018-05-03T07:28:06.819Z,60.00
2018-05-03T07:30:37.013Z,59.20
2018-05-03T07:33:06.271Z,59.20
2018-05-03T07:35:35.469Z,58.80
2018-05-03T07:38:04.684Z,58.10
2018-05-03T07:40:34.078Z,57.30
2018-05-03T07:43:03.273Z,57.20
2018-05-03T07:45:32.592Z,56.30
2018-05-03T07:48:01.741Z,56.10
2018-05-03T07:50:30.952Z,55.50
2018-05-03T07:53:00.191Z,54.90
2018-05-03T07:55:29.405Z,53.20
2018-05-03T07:57:58.620Z,54.50
2018-05-03T08:00:28.761Z,53.40
2018-05-03T08:02:58.712Z,52.50
2018-05-03T08:05:27.962Z,52.50
2018-05-03T08:07:58.101Z,52.60
2018-05-03T08:10:28.140Z,53.40
2018-05-03T08:12:57.476Z,53.40
2018-05-03T08:15:26.961Z,53.40
2018-05-03T08:17:56.178Z,53.00
2018-05-03T08:20:25.657Z,53.30
2018-05-03T08:22:54.851Z,53.30
2018-05-03T08:25:24.176Z,52.40
2018-05-03T08:27:53.463Z,51.10
2018-05-03T08:30:22.720Z,51.30
2018-05-03T08:32:51.908Z,50.50
2018-05-03T08:35:21.981Z,48.50
2018-05-03T08:37:51.140Z,48.40
2018-05-03T08:40:20.373Z,47.20
2018-05-03T08:42:49.775Z,45.80
2018-05-03T08:45:18.990Z,45.50
2018-05-03T08:47:48.273Z,45.30
2018-05-03T08:50:17.494Z,45.60
2018-05-03T08:52:46.710Z,44.80
2018-05-03T08:55:16.787Z,43.30
2018-05-03T08:57:46.267Z,43.30
2018-05-03T09:00:15.502Z,43.20
2018-05-03T09:02:44.653Z,42.60
2018-05-03T09:05:14.623Z,43.00
2018-05-03T09:07:43.979Z,42.80
2018-05-03T09:10:13.304Z,43.30
2018-05-03T09:12:42.499Z,42.40
2018-05-03T09:15:11.697Z,43.00
2018-05-03T09:17:40.911Z,43.80
2018-05-03T09:20:10.104Z,42.90
2018-05-03T09:22:39.311Z,43.70
2018-05-03T09:25:08.595Z,43.30
2018-05-03T09:27:37.616Z,44.60
2018-05-03T09:30:06.890Z,46.20
2018-05-03T09:32:36.188Z,45.80
2018-05-03T09:35:05.405Z,46.80
2018-05-03T09:37:34.674Z,46.50
2018-05-03T09:40:03.837Z,46.30
2018-05-03T09:42:33.114Z,44.80
2018-05-03T09:45:02.382Z,44.00
2018-05-03T09:47:31.684Z,44.10
2018-05-03T09:50:00.968Z,44.00
2018-05-03T09:52:30.300Z,45.10
2018-05-03T09:54:59.593Z,45.20
2018-05-03T09:57:28.917Z,44.10
2018-05-03T09:59:58.932Z,43.80
2018-05-03T10:02:28.217Z,43.80
2018-05-03T10:04:57.448Z,42.80
2018-05-03T10:07:26.672Z,43.00
2018-05-03T10:09:55.887Z,41.70
2018-05-03T10:12:25.305Z,42.70
2018-05-03T10:14:54.600Z,43.70
2018-05-03T10:17:23.900Z,43.10
2018-05-03T10:19:53.130Z,43.30
2018-05-03T10:22:22.451Z,43.50
2018-05-03T10:24:52.395Z,43.90
2018-05-03T10:27:21.609Z,43.90
2018-05-03T10:29:51.055Z,43.30
2018-05-03T10:32:20.360Z,43.60
2018-05-03T10:34:49.676Z,42.90
2018-05-03T10:37:19.017Z,43.30
2018-05-03T10:39:48.200Z,43.60
2018-05-03T10:42:17.465Z,44.30
2018-05-03T10:44:47.446Z,43.10
2018-05-03T10:47:16.630Z,43.10
2018-05-03T10:49:45.822Z,42.40
2018-05-03T10:52:15.052Z,43.20
2018-05-03T10:54:44.350Z,43.70
2018-05-03T10:57:13.545Z,43.80
2018-05-03T10:59:42.824Z,43.80
2018-05-03T11:02:12.047Z,43.60
2018-05-03T11:04:41.224Z,43.90
2018-05-03T11:07:10.618Z,43.70
2018-05-03T11:09:39.721Z,43.10
2018-05-03T11:12:08.918Z,42.60
2018-05-03T11:14:38.240Z,42.40
2018-05-03T11:17:07.615Z,42.90
2018-05-03T11:19:36.873Z,43.60
2018-05-03T11:22:06.067Z,43.00
2018-05-03T11:24:35.305Z,42.40
2018-05-03T11:27:04.824Z,42.40
2018-05-03T11:29:34.225Z,42.50
2018-05-03T11:32:03.621Z,42.60
2018-05-03T11:34:32.865Z,42.90
2018-05-03T11:37:02.963Z,43.20
2018-05-03T11:39:32.194Z,43.20
2018-05-03T11:42:01.426Z,42.40
2018-05-03T11:44:30.832Z,41.40
2018-05-03T11:47:00.325Z,42.50
2018-05-03T11:49:29.645Z,42.30
2018-05-03T11:51:58.829Z,41.90
2018-05-03T11:54:28.181Z,42.60
2018-05-03T11:56:57.349Z,42.90
2018-05-03T11:59:26.664Z,42.40
2018-05-03T12:01:55.805Z,42.30
2018-05-03T12:04:25.088Z,41.90
2018-05-03T12:06:54.362Z,41.70
2018-05-03T12:09:23.536Z,41.30
2018-05-03T12:11:52.787Z,41.80
2018-05-03T12:14:22.133Z,43.00
2018-05-03T12:16:52.880Z,43.20
2018-05-03T12:19:22.271Z,43.20
2018-05-03T12:21:51.472Z,42.90
2018-05-03T12:24:20.838Z,42.60
2018-05-03T12:26:49.998Z,42.40
2018-05-03T12:29:19.213Z,41.40
2018-05-03T12:31:48.443Z,41.10
2018-05-03T12:34:17.703Z,41.30
2018-05-03T12:36:47.675Z,42.40
2018-05-03T12:39:16.978Z,42.40
2018-05-03T12:41:46.282Z,43.30
2018-05-03T12:44:15.450Z,43.70
2018-05-03T12:46:44.721Z,44.00
2018-05-03T12:49:14.685Z,43.50
2018-05-03T12:51:43.929Z,43.50
2018-05-03T12:54:13.089Z,43.80
2018-05-03T12:56:42.289Z,44.30
2018-05-03T12:59:11.540Z,44.40
2018-05-03T13:01:40.790Z,44.50
2018-05-03T13:04:10.082Z,44.20
2018-05-03T13:06:39.371Z,43.90
2018-05-03T13:09:08.685Z,43.40
2018-05-03T13:11:37.997Z,42.90
2018-05-03T13:14:07.290Z,43.40
2018-05-03T13:16:36.585Z,43.60
2018-05-03T13:19:05.988Z,44.00
2018-05-03T13:21:35.194Z,44.30
2018-05-03T13:24:04.445Z,44.30
2018-05-03T13:26:34.402Z,44.30
2018-05-03T13:29:03.703Z,44.20
2018-05-03T13:31:32.909Z,44.80
2018-05-03T13:34:02.206Z,44.80
2018-05-03T13:36:32.213Z,43.80
2018-05-03T13:39:01.412Z,43.80
2018-05-03T13:41:30.716Z,43.70
2018-05-03T13:43:59.916Z,44.20
2018-05-03T13:46:29.315Z,44.20
2018-05-03T13:48:58.528Z,43.70
2018-05-03T13:51:27.769Z,43.70
2018-05-03T13:53:57.833Z,43.60
2018-05-03T13:56:27.130Z,43.60
2018-05-03T13:58:56.332Z,43.50
2018-05-03T14:01:25.730Z,43.30
2018-05-03T14:03:54.980Z,42.90
2018-05-03T14:06:24.338Z,42.70
2018-05-03T14:08:53.636Z,42.70
2018-05-03T14:11:22.877Z,43.10
2018-05-03T14:13:52.851Z,43.60
2018-05-03T14:16:21.995Z,43.60
2018-05-03T14:18:51.291Z,43.40
2018-05-03T14:21:20.526Z,43.50
2018-05-03T14:23:49.841Z,43.30
2018-05-03T14:26:19.083Z,43.50
2018-05-03T14:28:48.346Z,43.60
2018-05-03T14:31:17.572Z,43.40
2018-05-03T14:33:47.043Z,43.50
2018-05-03T14:36:16.199Z,45.00
2018-05-03T14:38:45.440Z,44.40
2018-05-03T14:41:14.836Z,44.70
2018-05-03T14:43:44.028Z,44.60
2018-05-03T14:46:13.153Z,44.30
2018-05-03T14:48:42.376Z,44.10
2018-05-03T14:51:11.593Z,44.50
2018-05-03T14:53:41.652Z,44.90
2018-05-03T14:56:10.840Z,44.90
2018-05-03T14:58:40.059Z,45.00
2018-05-03T15:01:09.259Z,44.60
2018-05-03T15:03:38.508Z,45.20
2018-05-03T15:06:07.699Z,45.60
2018-05-03T15:08:36.901Z,45.40
2018-05-03T15:11:06.147Z,45.40
2018-05-03T15:13:35.338Z,46.00
2018-05-03T15:16:04.545Z,46.00
2018-05-03T15:18:33.889Z,45.50
2018-05-03T15:21:03.133Z,45.50
2018-05-03T15:23:32.371Z,46.10
2018-05-03T15:26:02.382Z,45.70
2018-05-03T15:28:31.599Z,45.70
2018-05-03T15:31:00.956Z,46.20
2018-05-03T15:33:30.135Z,46.50
2018-05-03T15:35:59.448Z,46.60
2018-05-03T15:38:28.817Z,46.60
2018-05-03T15:40:58.146Z,46.10
2018-05-03T15:43:27.448Z,45.80
2018-05-03T15:45:56.749Z,45.70
2018-05-03T15:48:25.944Z,45.70
2018-05-03T15:50:55.261Z,45.30
2018-05-03T15:53:25.397Z,45.80
2018-05-03T15:55:55.552Z,45.80
2018-05-03T15:58:25.725Z,46.00
2018-05-03T16:00:55.009Z,46.00
2018-05-03T16:03:24.357Z,46.50
2018-05-03T16:05:54.425Z,48.30
2018-05-03T16:08:23.726Z,47.60
2018-05-03T16:10:53.026Z,47.80
2018-05-03T16:13:22.225Z,48.20
2018-05-03T16:15:51.416Z,48.60
2018-05-03T16:18:20.769Z,48.70
2018-05-03T16:20:50.027Z,48.90
2018-05-03T16:23:19.296Z,48.70
2018-05-03T16:25:48.627Z,49.30
2018-05-03T16:28:17.821Z,48.90
2018-05-03T16:30:47.226Z,49.20
2018-05-03T16:33:16.629Z,49.30
2018-05-03T16:35:45.886Z,48.80
2018-05-03T16:38:15.227Z,48.70
2018-05-03T16:40:44.537Z,49.20
2018-05-03T16:43:13.725Z,49.10
2018-05-03T16:45:43.026Z,49.30
2018-05-03T16:48:12.281Z,48.90
2018-05-03T16:50:41.525Z,49.00
2018-05-03T16:53:10.722Z,49.90
2018-05-03T16:55:39.977Z,49.90
2018-05-03T16:58:10.020Z,50.40
2018-05-03T17:00:39.184Z,50.30
2018-05-03T17:03:08.384Z,50.50
2018-05-03T17:05:37.635Z,50.80
2018-05-03T17:08:06.836Z,51.00
2018-05-03T17:10:36.143Z,51.00
2018-05-03T17:13:05.364Z,51.00
2018-05-03T17:15:34.566Z,51.50
2018-05-03T17:18:03.843Z,51.50
2018-05-03T17:20:33.083Z,51.60
2018-05-03T17:23:03.145Z,51.70
2018-05-03T17:25:32.445Z,51.70
2018-05-03T17:28:01.741Z,51.80
2018-05-03T17:30:31.085Z,52.00
2018-05-03T17:33:00.374Z,52.30
2018-05-03T17:35:29.641Z,52.60
2018-05-03T17:37:58.890Z,52.80
2018-05-03T17:40:28.964Z,53.10
2018-05-03T17:42:58.214Z,53.20
2018-05-03T17:45:27.281Z,53.30
2018-05-03T17:47:56.508Z,53.80
2018-05-03T17:50:25.809Z,54.00
2018-05-03T17:52:55.002Z,54.30
2018-05-03T17:55:24.292Z,54.40
2018-05-03T17:57:54.291Z,54.50
2018-05-03T18:00:23.464Z,54.50
2018-05-03T18:02:52.768Z,54.70
2018-05-03T18:05:22.145Z,54.70
2018-05-03T18:07:51.327Z,55.00
2018-05-03T18:10:20.772Z,55.20
2018-05-03T18:12:49.966Z,55.30
2018-05-03T18:15:19.331Z,55.50
2018-05-03T18:17:48.572Z,55.80
2018-05-03T18:20:17.765Z,56.00
2018-05-03T18:22:46.999Z,56.20
2018-05-03T18:25:16.980Z,56.90
2018-05-03T18:27:46.343Z,56.30
2018-05-03T18:30:16.297Z,56.80
2018-05-03T18:32:45.779Z,56.70
2018-05-03T18:35:15.000Z,56.80
2018-05-03T18:37:44.306Z,56.90
2018-05-03T18:40:13.503Z,56.90
2018-05-03T18:42:42.737Z,57.00
2018-05-03T18:45:12.692Z,56.30
2018-05-03T18:47:41.974Z,56.30
2018-05-03T18:50:11.943Z,56.10
2018-05-03T18:52:41.177Z,56.10
2018-05-03T18:55:10.531Z,56.00
2018-05-03T18:57:40.585Z,55.60
2018-05-03T19:00:09.878Z,55.60
2018-05-03T19:02:39.096Z,55.70
2018-05-03T19:05:08.444Z,55.90
2018-05-03T19:07:37.682Z,55.90
2018-05-03T19:10:06.976Z,56.20
2018-05-03T19:12:36.967Z,56.60
2018-05-03T19:15:06.364Z,56.50
2018-05-03T19:17:35.773Z,56.50
2018-05-03T19:20:04.998Z,56.60
2018-05-03T19:22:34.163Z,56.80
2018-05-03T19:25:03.463Z,56.60
2018-05-03T19:27:32.673Z,56.80
2018-05-03T19:30:02.029Z,56.50
2018-05-03T19:32:31.364Z,56.90
2018-05-03T19:35:00.606Z,56.90
2018-05-03T19:37:29.817Z,56.90
2018-05-03T19:39:59.039Z,57.00
2018-05-03T19:42:28.256Z,57.00
2018-05-03T19:44:57.555Z,56.90
2018-05-03T19:47:26.758Z,57.00
2018-05-03T19:49:55.929Z,56.80
2018-05-03T19:52:25.146Z,57.10
2018-05-03T19:54:54.353Z,57.20
2018-05-03T19:57:23.541Z,57.10
2018-05-03T19:59:52.877Z,57.30
2018-05-03T20:02:22.853Z,57.30
2018-05-03T20:04:52.070Z,57.10
2018-05-03T20:07:21.282Z,57.20
2018-05-03T20:09:50.546Z,57.40
2018-05-03T20:12:19.869Z,57.40
2018-05-03T20:14:49.058Z,57.40
2018-05-03T20:17:18.265Z,57.50
2018-05-03T20:19:47.643Z,57.70
2018-05-03T20:22:16.891Z,57.80
2018-05-03T20:24:46.899Z,58.10
2018-05-03T20:27:16.989Z,58.10
2018-05-03T20:29:46.212Z,58.10
2018-05-03T20:32:16.213Z,58.40
2018-05-03T20:34:45.503Z,58.40
2018-05-03T20:37:14.852Z,58.40
2018-05-03T20:39:44.169Z,58.70
2018-05-03T20:42:13.389Z,58.60
2018-05-03T20:44:42.633Z,58.60
2018-05-03T20:47:11.972Z,58.70
2018-05-03T20:49:41.215Z,59.00
2018-05-03T20:52:10.432Z,58.70
2018-05-03T20:54:40.409Z,58.70
2018-05-03T20:57:09.648Z,58.60
2018-05-03T20:59:39.677Z,58.70
2018-05-03T21:02:08.890Z,58.70
2018-05-03T21:04:38.134Z,58.70
2018-05-03T21:07:07.324Z,59.00
2018-05-03T21:09:36.535Z,58.90
2018-05-03T21:12:05.874Z,58.90
2018-05-03T21:14:35.137Z,59.10
2018-05-03T21:17:04.431Z,58.90
2018-05-03T21:19:33.760Z,59.10
2018-05-03T21:22:02.967Z,59.00
2018-05-03T21:24:33.015Z,59.00
2018-05-03T21:27:02.274Z,59.00
2018-05-03T21:29:31.542Z,59.20
2018-05-03T21:32:00.859Z,59.60
2018-05-03T21:34:30.100Z,59.50
2018-05-03T21:36:59.409Z,59.50
2018-05-03T21:39:29.563Z,59.60
2018-05-03T21:41:58.782Z,59.60
2018-05-03T21:44:28.060Z,59.70
2018-05-03T21:46:57.257Z,59.70
2018-05-03T21:49:27.306Z,59.90
2018-05-03T21:51:56.579Z,60.00
2018-05-03T21:54:25.810Z,60.10
2018-05-03T21:56:55.282Z,59.90
2018-05-03T21:59:24.266Z,60.00
2018-05-03T22:01:53.254Z,60.10
2018-05-03T22:04:22.472Z,60.00
2018-05-03T22:06:51.703Z,60.20
2018-05-03T22:09:21.781Z,60.00
2018-05-03T22:11:51.079Z,60.00
2018-05-03T22:14:20.279Z,60.30
2018-05-03T22:16:49.579Z,60.10
2018-05-03T22:19:18.803Z,60.10
2018-05-03T22:21:48.075Z,60.40
2018-05-03T22:24:17.395Z,60.40
2018-05-03T22:26:46.656Z,60.60
2018-05-03T22:29:15.937Z,60.20
2018-05-03T22:31:45.942Z,60.60
2018-05-03T22:34:16.011Z,60.60
2018-05-03T22:36:45.212Z,60.60
2018-05-03T22:39:14.827Z,60.90
2018-05-03T22:41:44.324Z,60.60
2018-05-03T22:44:13.530Z,60.60
2018-05-03T22:46:42.774Z,60.30
2018-05-03T22:49:12.835Z,60.80
2018-05-03T22:51:42.263Z,60.80
2018-05-03T22:54:11.471Z,60.50
2018-05-03T22:56:40.695Z,60.70
2018-05-03T22:59:10.111Z,60.50
2018-05-03T23:01:39.357Z,60.60
2018-05-03T23:04:08.560Z,60.60
2018-05-03T23:06:38.622Z,60.80
2018-05-03T23:09:08.776Z,61.10
2018-05-03T23:11:38.031Z,61.10
2018-05-03T23:14:07.375Z,61.00
2018-05-03T23:16:36.679Z,61.00
2018-05-03T23:19:05.981Z,61.00
2018-05-03T23:21:35.191Z,61.00
2018-05-03T23:24:04.474Z,61.00
2018-05-03T23:26:33.775Z,61.00
2018-05-03T23:29:03.074Z,61.00
2018-05-03T23:31:32.309Z,61.10
2018-05-03T23:34:02.497Z,61.00
2018-05-03T23:36:31.728Z,61.00
2018-05-03T23:39:00.983Z,60.90
2018-05-03T23:41:30.393Z,60.90
2018-05-03T23:43:59.523Z,60.80
2018-05-03T23:46:28.890Z,60.60
2018-05-03T23:48:58.115Z,60.90
2018-05-03T23:51:27.389Z,60.70
2018-05-03T23:53:56.741Z,60.70
2018-05-03T23:56:25.961Z,60.60
2018-05-03T23:58:55.293Z,59.90
